createdAt,value
2019-04-20T00:00:51.038Z,103111.66
2019-04-20T00:03:18.133Z,103113.00
2019-04-20T00:05:48.960Z,103112.13
2019-04-20T00:08:23.206Z,103119.34
2019-04-20T00:10:57.023Z,103113.58
2019-04-20T00:13:30.897Z,103117.22
2019-04-20T00:15:53.568Z,103119.14
2019-04-20T00:18:26.828Z,103115.09
2019-04-20T00:21:04.792Z,103110.27
2019-04-20T00:23:39.912Z,103106.80
2019-04-20T00:26:51.118Z,103105.81
2019-04-20T00:29:10.265Z,103109.86
2019-04-20T00:31:44.579Z,103110.91
2019-04-20T00:34:07.992Z,103108.78
2019-04-20T00:36:30.745Z,103116.88
2019-04-20T00:39:03.789Z,103111.54
2019-04-20T00:41:36.200Z,103105.30
2019-04-20T00:44:06.888Z,103113.39
2019-04-20T00:46:46.919Z,103109.82
2019-04-20T00:49:23.116Z,103106.34
2019-04-20T00:51:52.650Z,103106.34
2019-04-20T00:54:09.530Z,103109.98
2019-04-20T00:56:39.318Z,103109.05
2019-04-20T00:59:21.745Z,103108.17
2019-04-20T01:01:59.930Z,103108.47
2019-04-20T01:04:32.811Z,103109.34
2019-04-20T01:07:26.505Z,103098.05
2019-04-20T01:10:10.937Z,103102.91
2019-04-20T01:12:42.456Z,103104.27
2019-04-20T01:15:23.031Z,103095.29
2019-04-20T01:17:44.038Z,103093.94
2019-04-20T01:20:13.896Z,103095.29
2019-04-20T01:22:53.866Z,103093.06
2019-04-20T01:25:24.256Z,103093.06
2019-04-20T01:28:04.592Z,103095.36
2019-04-20T01:30:25.362Z,103091.31
2019-04-20T01:33:06.209Z,103090.94
2019-04-20T01:35:35.562Z,103088.71
2019-04-20T01:38:16.913Z,103086.11
2019-04-20T01:40:23.221Z,103083.95
2019-04-20T01:42:53.259Z,103074.52
2019-04-20T01:45:29.562Z,103078.66
2019-04-20T01:47:57.410Z,103079.61
2019-04-20T01:50:28.485Z,103077.00
2019-04-20T01:53:07.832Z,103077.45
2019-04-20T01:55:58.412Z,103075.22
2019-04-20T02:01:17.784Z,103077.23
2019-04-20T02:03:55.767Z,103077.30
2019-04-20T02:06:26.860Z,103072.48
2019-04-20T02:08:59.388Z,103069.38
2019-04-20T02:11:33.957Z,103073.99
2019-04-20T02:14:02.387Z,103068.70
2019-04-20T02:16:38.533Z,103066.06
2019-04-20T02:19:13.838Z,103074.25
2019-04-20T02:21:48.857Z,103071.66
2019-04-20T02:24:06.399Z,103067.61
2019-04-20T02:26:35.050Z,103059.12
2019-04-20T02:29:32.523Z,103065.86
2019-04-20T02:35:36.115Z,103051.59
2019-04-20T02:43:15.652Z,103059.45
2019-04-20T02:48:15.710Z,103056.84
2019-04-20T02:50:49.620Z,103052.40
2019-04-20T02:53:20.317Z,103056.91
2019-04-20T02:58:23.891Z,103055.56
2019-04-20T03:00:44.458Z,103053.74
2019-04-20T03:03:07.775Z,103049.80
2019-04-20T03:05:37.120Z,103047.57
2019-04-20T03:08:15.422Z,103048.05
2019-04-20T03:10:56.717Z,103047.27
2019-04-20T03:13:20.921Z,103050.91
2019-04-20T03:15:51.981Z,103058.14
2019-04-20T03:18:19.501Z,103053.22
2019-04-20T03:20:53.328Z,103054.00
2019-04-20T03:23:31.079Z,103050.91
2019-04-20T03:26:06.453Z,103055.83
2019-04-20T03:29:01.515Z,103053.59
2019-04-20T03:32:04.303Z,103052.34
2019-04-20T03:36:49.529Z,103055.52
2019-04-20T03:39:09.285Z,103049.55
2019-04-20T03:41:32.503Z,103049.48
2019-04-20T03:44:00.891Z,103052.86
2019-04-20T03:46:36.700Z,103055.50
2019-04-20T03:49:15.766Z,103050.48
2019-04-20T03:51:53.505Z,103055.81
2019-04-20T03:54:30.659Z,103052.13
2019-04-20T03:57:21.147Z,103051.19
2019-04-20T03:59:55.083Z,103045.80
2019-04-20T04:05:46.851Z,103047.55
2019-04-20T04:08:17.077Z,103050.63
2019-04-20T04:10:54.870Z,103051.97
2019-04-20T04:13:14.712Z,103050.25
2019-04-20T04:15:51.982Z,103050.63
2019-04-20T04:18:26.849Z,103050.63
2019-04-20T04:20:58.665Z,103052.78
2019-04-20T04:23:38.285Z,103050.86
2019-04-20T04:26:10.374Z,103049.89
2019-04-20T04:28:36.941Z,103048.84
2019-04-20T04:31:12.175Z,103046.45
2019-04-20T04:36:13.527Z,103043.90
2019-04-20T04:38:53.426Z,103042.38
2019-04-20T04:43:49.937Z,103046.19
2019-04-20T04:46:03.926Z,103045.15
2019-04-20T04:48:37.276Z,103045.55
2019-04-20T04:51:11.947Z,103042.28
2019-04-20T04:53:47.590Z,103033.15
2019-04-20T04:56:11.749Z,103037.43
2019-04-20T04:58:38.704Z,103034.45
2019-04-20T05:01:15.688Z,103030.07
2019-04-20T05:04:05.567Z,103028.64
2019-04-20T05:06:33.199Z,103030.92
2019-04-20T05:08:57.953Z,103030.47
2019-04-20T05:11:23.715Z,103036.30
2019-04-20T05:14:00.562Z,103026.56
2019-04-20T05:16:48.121Z,103032.16
2019-04-20T05:19:19.585Z,103031.91
2019-04-20T05:22:02.595Z,103030.97
2019-04-20T05:24:29.185Z,103028.56
2019-04-20T05:27:30.191Z,103024.34
2019-04-20T05:29:42.270Z,103025.21
2019-04-20T05:32:17.019Z,103028.28
2019-04-20T05:35:05.048Z,103022.03
2019-04-20T05:37:59.370Z,103022.87
2019-04-20T05:40:11.872Z,103019.23
2019-04-20T05:42:37.282Z,103020.10
2019-04-20T05:45:11.717Z,103016.42
2019-04-20T05:47:39.933Z,103018.64
2019-04-20T05:50:06.440Z,103020.40
2019-04-20T05:52:53.884Z,103020.40
2019-04-20T05:55:17.599Z,103010.84
2019-04-20T05:57:50.452Z,103011.72
2019-04-20T06:00:23.440Z,103010.77
2019-04-20T06:02:49.780Z,103010.66
2019-04-20T06:05:23.981Z,103012.48
2019-04-20T06:07:54.892Z,103010.59
2019-04-20T06:10:27.589Z,103006.42
2019-04-20T06:12:52.927Z,103005.77
2019-04-20T06:15:43.446Z,103005.48
2019-04-20T06:18:21.760Z,103003.77
2019-04-20T06:21:10.624Z,103009.54
2019-04-20T06:26:51.918Z,103013.52
2019-04-20T06:29:07.303Z,103012.30
2019-04-20T06:31:40.657Z,103006.99
2019-04-20T06:36:49.775Z,102996.97
2019-04-20T06:39:26.302Z,102997.55
2019-04-20T06:44:30.827Z,102991.92
2019-04-20T06:47:04.078Z,102993.45
2019-04-20T06:49:31.749Z,102996.84
2019-04-20T06:52:14.245Z,102996.06
2019-04-20T06:55:01.571Z,102994.91
2019-04-20T06:57:37.203Z,102994.20
2019-04-20T07:00:07.424Z,102993.14
2019-04-20T07:02:41.719Z,102993.42
2019-04-20T07:07:45.104Z,102988.22
2019-04-20T07:10:15.184Z,102988.58
2019-04-20T07:12:39.994Z,102983.56
2019-04-20T07:15:08.499Z,102982.61
2019-04-20T07:20:27.748Z,102982.41
2019-04-20T07:23:14.142Z,102982.81
2019-04-20T07:25:34.232Z,102982.69
2019-04-20T07:28:04.229Z,102970.44
2019-04-20T07:30:35.123Z,102980.27
2019-04-20T07:33:04.497Z,102981.91
2019-04-20T07:35:35.746Z,102981.82
2019-04-20T07:40:38.465Z,102977.16
2019-04-20T07:43:07.908Z,102983.84
2019-04-20T07:45:38.248Z,102984.21
2019-04-20T07:48:15.253Z,102980.44
2019-04-20T07:50:37.462Z,102975.78
2019-04-20T07:53:12.247Z,102973.86
2019-04-20T07:55:51.047Z,102966.86
2019-04-20T07:58:10.922Z,102967.06
2019-04-20T08:01:04.168Z,102969.17
2019-04-20T08:03:33.644Z,102961.24
2019-04-20T08:06:01.197Z,102956.11
2019-04-20T08:08:35.279Z,102952.80
2019-04-20T08:11:10.346Z,102947.55
2019-04-20T08:13:45.622Z,102945.63
2019-04-20T08:16:14.559Z,102942.80
2019-04-20T08:18:49.970Z,102944.91
2019-04-20T08:21:16.713Z,102935.34
2019-04-20T08:23:57.028Z,102932.52
2019-04-20T08:26:09.059Z,102931.56
2019-04-20T08:28:42.358Z,102934.15
2019-04-20T08:31:44.981Z,102928.73
2019-04-20T08:34:31.445Z,102924.55
2019-04-20T08:36:56.642Z,102926.78
2019-04-20T08:39:45.046Z,102925.91
2019-04-20T08:42:03.052Z,102924.07
2019-04-20T08:44:48.468Z,102921.84
2019-04-20T08:47:10.259Z,102926.30
2019-04-20T08:49:35.029Z,102918.17
2019-04-20T08:52:41.294Z,102920.88
2019-04-20T08:54:35.536Z,102921.28
2019-04-20T08:56:54.751Z,102922.16
2019-04-20T08:59:21.095Z,102913.16
2019-04-20T09:01:51.166Z,102916.61
2019-04-20T09:04:32.877Z,102909.84
2019-04-20T09:07:04.107Z,102909.72
2019-04-20T09:09:49.509Z,102904.82
2019-04-20T09:12:08.971Z,102903.95
2019-04-20T09:14:28.225Z,102898.89
2019-04-20T09:17:32.582Z,102900.25
2019-04-20T09:20:04.163Z,102900.25
2019-04-20T09:22:40.925Z,102898.05
2019-04-20T09:25:44.205Z,102893.12
2019-04-20T09:27:43.543Z,102885.48
2019-04-20T09:30:24.345Z,102889.53
2019-04-20T09:33:06.649Z,102884.24
2019-04-20T09:35:41.574Z,102884.24
2019-04-20T09:38:11.783Z,102879.66
2019-04-20T09:40:46.179Z,102875.24
2019-04-20T09:43:09.340Z,102873.98
2019-04-20T09:45:48.054Z,102870.04
2019-04-20T09:48:23.263Z,102870.52
2019-04-20T09:51:04.768Z,102868.77
2019-04-20T09:53:29.688Z,102863.09
2019-04-20T09:56:06.476Z,102857.80
2019-04-20T09:58:30.903Z,102849.79
2019-04-20T10:01:05.541Z,102843.59
2019-04-20T10:03:24.760Z,102846.81
2019-04-20T10:05:55.894Z,102850.95
2019-04-20T10:08:26.219Z,102842.56
2019-04-20T10:10:56.279Z,102836.87
2019-04-20T10:13:27.147Z,102832.06
2019-04-20T10:15:57.731Z,102831.19
2019-04-20T10:18:27.939Z,102830.80
2019-04-20T10:20:58.050Z,102828.61
2019-04-20T10:23:27.686Z,102827.34
2019-04-20T10:25:58.445Z,102827.46
2019-04-20T10:28:28.196Z,102825.72
2019-04-20T10:30:58.934Z,102824.48
2019-04-20T10:33:28.722Z,102823.73
2019-04-20T10:35:59.475Z,102823.34
2019-04-20T10:38:33.703Z,102816.66
2019-04-20T10:41:11.456Z,102817.66
2019-04-20T10:43:33.464Z,102819.09
2019-04-20T10:46:03.011Z,102816.02
2019-04-20T10:48:41.307Z,102815.16
2019-04-20T10:51:05.148Z,102800.87
2019-04-20T10:53:34.723Z,102803.18
2019-04-20T10:56:05.318Z,102797.89
2019-04-20T10:58:35.833Z,102795.66
2019-04-20T11:01:07.388Z,102792.56
2019-04-20T11:03:38.241Z,102789.98
2019-04-20T11:06:08.977Z,102784.17
2019-04-20T11:08:38.511Z,102778.77
2019-04-20T11:11:14.806Z,102775.22
2019-04-20T11:13:39.676Z,102769.80
2019-04-20T11:16:10.996Z,102771.16
2019-04-20T11:18:40.515Z,102764.39
2019-04-20T11:21:11.392Z,102766.23
2019-04-20T11:23:42.341Z,102756.76
2019-04-20T11:26:12.040Z,102753.06
2019-04-20T11:28:42.042Z,102753.57
2019-04-20T11:31:12.480Z,102749.00
2019-04-20T11:33:42.505Z,102750.86
2019-04-20T11:36:12.938Z,102753.18
2019-04-20T11:38:42.804Z,102750.47
2019-04-20T11:41:19.960Z,102747.85
2019-04-20T11:43:44.081Z,102743.80
2019-04-20T11:46:14.511Z,102743.31
2019-04-20T11:48:45.365Z,102735.68
2019-04-20T11:51:15.815Z,102734.33
2019-04-20T11:53:46.070Z,102730.78
2019-04-20T11:56:22.446Z,102734.33
2019-04-20T11:58:47.128Z,102724.50
2019-04-20T12:01:41.315Z,102721.87
2019-04-20T12:04:21.566Z,102717.07
2019-04-20T12:06:39.183Z,102713.22
2019-04-20T12:09:11.046Z,102720.08
2019-04-20T12:11:56.241Z,102714.78
2019-04-20T12:14:12.584Z,102705.41
2019-04-20T12:16:43.651Z,102705.61
2019-04-20T12:19:14.595Z,102700.33
2019-04-20T12:21:45.497Z,102695.00
2019-04-20T12:24:16.373Z,102692.54
2019-04-20T12:26:46.985Z,102685.86
2019-04-20T12:29:16.533Z,102690.52
2019-04-20T12:31:51.146Z,102683.87
2019-04-20T12:34:18.164Z,102683.09
2019-04-20T12:36:48.890Z,102680.52
2019-04-20T12:39:19.260Z,102676.19
2019-04-20T12:41:53.638Z,102666.45
2019-04-20T12:44:21.710Z,102669.23
2019-04-20T12:46:52.032Z,102664.43
2019-04-20T12:49:21.594Z,102664.91
2019-04-20T12:51:57.346Z,102657.79
2019-04-20T12:54:22.778Z,102662.80
2019-04-20T12:56:52.995Z,102664.55
2019-04-20T12:59:23.480Z,102653.73
2019-04-20T13:01:53.428Z,102647.45
2019-04-20T13:04:23.069Z,102646.50
2019-04-20T13:06:55.220Z,102643.41
2019-04-20T13:09:26.387Z,102634.80
2019-04-20T13:12:08.397Z,102634.41
2019-04-20T13:15:36.457Z,102630.36
2019-04-20T13:18:07.420Z,102624.59
2019-04-20T13:20:37.188Z,102619.27
2019-04-20T13:23:07.494Z,102610.69
2019-04-20T13:25:39.182Z,102606.23
2019-04-20T13:28:08.899Z,102606.72
2019-04-20T13:30:39.638Z,102604.88
2019-04-20T13:33:10.117Z,102603.53
2019-04-20T13:35:40.539Z,102596.77
2019-04-20T13:38:10.250Z,102596.77
2019-04-20T13:40:39.856Z,102592.23
2019-04-20T13:43:09.949Z,102587.79
2019-04-20T13:45:39.549Z,102585.48
2019-04-20T13:48:09.083Z,102582.30
2019-04-20T13:50:38.540Z,102577.76
2019-04-20T13:53:09.608Z,102570.52
2019-04-20T13:55:40.105Z,102565.11
2019-04-20T13:58:16.007Z,102573.58
2019-04-20T14:01:06.209Z,102566.34
2019-04-20T14:03:36.611Z,102566.73
2019-04-20T14:06:06.870Z,102562.67
2019-04-20T14:08:37.122Z,102553.69
2019-04-20T14:11:07.282Z,102558.11
2019-04-20T14:13:43.523Z,102553.57
2019-04-20T14:16:09.131Z,102551.34
2019-04-20T14:18:38.731Z,102543.75
2019-04-20T14:21:08.272Z,102541.88
2019-04-20T14:23:38.996Z,102541.41
2019-04-20T14:26:09.216Z,102529.62
2019-04-20T14:28:38.863Z,102525.09
2019-04-20T14:31:09.802Z,102528.27
2019-04-20T14:33:39.394Z,102518.81
2019-04-20T14:36:08.953Z,102516.11
2019-04-20T14:38:38.464Z,102511.56
2019-04-20T14:41:08.465Z,102504.30
2019-04-20T14:43:39.805Z,102497.18
2019-04-20T14:46:10.610Z,102500.36
2019-04-20T14:48:40.677Z,102493.12
2019-04-20T14:51:10.355Z,102494.56
2019-04-20T14:53:41.332Z,102495.08
2019-04-20T14:56:11.421Z,102486.45
2019-04-20T14:58:55.562Z,102482.05
2019-04-20T15:01:46.589Z,102479.34
2019-04-20T15:04:18.521Z,102478.95
2019-04-20T15:06:48.588Z,102467.78
2019-04-20T15:09:18.862Z,102470.84
2019-04-20T15:11:48.585Z,102465.08
2019-04-20T15:14:18.677Z,102464.56
2019-04-20T15:16:48.704Z,102456.45
2019-04-20T15:19:29.502Z,102459.16
2019-04-20T15:22:00.827Z,102455.61
2019-04-20T15:24:31.507Z,102450.69
2019-04-20T15:27:02.446Z,102452.52
2019-04-20T15:29:32.553Z,102446.23
2019-04-20T15:32:02.179Z,102439.96
2019-04-20T15:34:32.905Z,102433.69
2019-04-20T15:37:02.626Z,102436.91
2019-04-20T15:39:32.938Z,102432.84
2019-04-20T15:42:03.352Z,102433.33
2019-04-20T15:44:33.464Z,102428.88
2019-04-20T15:47:03.673Z,102433.81
2019-04-20T15:49:33.799Z,102425.31
2019-04-20T15:52:03.940Z,102422.13
2019-04-20T15:54:33.945Z,102419.06
2019-04-20T15:57:09.845Z,102412.40
2019-04-20T15:59:34.931Z,102410.18
2019-04-20T16:02:35.800Z,102412.40
2019-04-20T16:05:21.986Z,102404.77
2019-04-20T16:07:56.273Z,102395.92
2019-04-20T16:10:23.368Z,102390.99
2019-04-20T16:13:05.803Z,102391.77
2019-04-20T16:15:25.448Z,102392.13
2019-04-20T16:17:55.101Z,102394.22
2019-04-20T16:20:26.823Z,102388.33
2019-04-20T16:22:56.478Z,102385.15
2019-04-20T16:25:43.685Z,102384.67
2019-04-20T16:28:14.014Z,102381.48
2019-04-20T16:30:43.589Z,102375.95
2019-04-20T16:33:14.568Z,102379.27
2019-04-20T16:35:44.677Z,102377.42
2019-04-20T16:38:14.285Z,102374.72
2019-04-20T16:40:44.355Z,102368.93
2019-04-20T16:43:22.183Z,102368.45
2019-04-20T16:45:45.505Z,102372.59
2019-04-20T16:48:16.010Z,102365.00
2019-04-20T16:50:46.807Z,102361.91
2019-04-20T16:53:17.049Z,102360.08
2019-04-20T16:55:46.620Z,102361.78
2019-04-20T16:58:16.207Z,102356.98
2019-04-20T17:00:45.986Z,102356.50
2019-04-20T17:03:15.797Z,102354.28
2019-04-20T17:05:46.246Z,102352.32
2019-04-20T17:08:16.842Z,102350.88
2019-04-20T17:10:46.570Z,102344.47
2019-04-20T17:13:29.005Z,102348.81
2019-04-20T17:15:47.915Z,102354.58
2019-04-20T17:18:17.505Z,102348.69
2019-04-20T17:20:48.323Z,102355.84
2019-04-20T17:23:19.241Z,102352.62
2019-04-20T17:25:52.299Z,102353.61
2019-04-20T17:28:47.095Z,102355.33
2019-04-20T17:31:25.220Z,102363.56
2019-04-20T17:34:21.326Z,102356.41
2019-04-20T17:36:35.381Z,102361.47
2019-04-20T17:39:10.291Z,102356.63
2019-04-20T17:41:56.318Z,102359.08
2019-04-20T17:44:24.780Z,102360.08
2019-04-20T17:46:51.147Z,102362.88
2019-04-20T17:49:25.640Z,102363.96
2019-04-20T17:52:05.123Z,102356.46
2019-04-20T17:54:33.583Z,102360.64
2019-04-20T17:57:04.476Z,102352.27
2019-04-20T17:59:35.060Z,102351.14
2019-04-20T18:02:48.720Z,102347.56
2019-04-20T18:05:24.182Z,102345.56
2019-04-20T18:07:53.514Z,102342.98
2019-04-20T18:10:22.656Z,102350.70
2019-04-20T18:12:43.063Z,102350.70
2019-04-20T18:15:27.866Z,102347.05
2019-04-20T18:18:20.154Z,102348.78
2019-04-20T18:20:45.511Z,102350.97
2019-04-20T18:23:16.380Z,102349.63
2019-04-20T18:26:13.323Z,102348.27
2019-04-20T18:28:32.343Z,102351.58
2019-04-20T18:31:17.455Z,102348.87
2019-04-20T18:33:48.487Z,102353.05
2019-04-20T18:36:23.629Z,102352.41
2019-04-20T18:38:57.444Z,102355.20
2019-04-20T18:41:30.855Z,102353.67
2019-04-20T18:43:55.996Z,102353.31
2019-04-20T18:46:49.430Z,102350.70
2019-04-20T18:49:09.779Z,102352.19
2019-04-20T18:51:26.056Z,102344.68
2019-04-20T18:54:00.614Z,102343.42
2019-04-20T18:56:32.420Z,102344.03
2019-04-20T18:58:58.994Z,102345.86
2019-04-20T19:01:33.214Z,102342.89
2019-04-20T19:04:00.063Z,102350.12
2019-04-20T19:06:29.932Z,102350.73
2019-04-20T19:09:00.740Z,102353.05
2019-04-20T19:11:30.893Z,102344.67
2019-04-20T19:14:26.152Z,102341.62
2019-04-20T19:17:04.538Z,102344.41
2019-04-20T19:19:44.508Z,102341.83
2019-04-20T19:22:10.144Z,102340.61
2019-04-20T19:24:41.574Z,102339.47
2019-04-20T19:27:15.484Z,102338.21
2019-04-20T19:29:54.873Z,102333.41
2019-04-20T19:32:32.430Z,102332.19
2019-04-20T19:34:57.538Z,102333.53
2019-04-20T19:37:26.323Z,102330.92
2019-04-20T19:40:02.938Z,102328.83
2019-04-20T19:42:37.124Z,102324.39
2019-04-20T19:45:01.440Z,102323.64
2019-04-20T19:47:42.874Z,102317.10
2019-04-20T19:50:25.243Z,102318.45
2019-04-20T19:52:53.106Z,102318.09
2019-04-20T19:55:16.212Z,102314.61
2019-04-20T19:57:46.466Z,102310.69
2019-04-20T19:59:59.831Z,102312.16
2019-04-20T20:02:29.864Z,102313.12
2019-04-20T20:05:06.339Z,102312.85
2019-04-20T20:07:37.730Z,102307.58
2019-04-20T20:10:06.931Z,102310.01
2019-04-20T20:12:33.652Z,102307.79
2019-04-20T20:15:07.371Z,102307.01
2019-04-20T20:17:54.007Z,102307.61
2019-04-20T20:20:30.632Z,102301.04
2019-04-20T20:22:42.618Z,102301.55
2019-04-20T20:25:09.346Z,102297.59
2019-04-20T20:27:49.139Z,102291.83
2019-04-20T20:30:20.424Z,102293.75
2019-04-20T20:32:59.485Z,102291.66
2019-04-20T20:35:23.065Z,102286.73
2019-04-20T20:37:50.135Z,102282.42
2019-04-20T20:40:25.617Z,102281.19
2019-04-20T20:43:01.483Z,102280.80
2019-04-20T20:45:29.496Z,102279.94
2019-04-20T20:48:09.447Z,102283.63
2019-04-20T20:50:42.819Z,102278.83
2019-04-20T20:53:05.084Z,102276.22
2019-04-20T20:55:33.515Z,102275.86
2019-04-20T20:58:01.716Z,102268.93
2019-04-20T21:00:38.830Z,102273.97
2019-04-20T21:03:03.930Z,102273.19
2019-04-20T21:05:31.468Z,102266.56
2019-04-20T21:08:01.679Z,102256.38
2019-04-20T21:10:39.832Z,102262.72
2019-04-20T21:13:06.533Z,102255.11
2019-04-20T21:15:35.096Z,102258.29
2019-04-20T21:18:31.349Z,102246.66
2019-04-20T21:20:59.211Z,102253.41
2019-04-20T21:23:23.917Z,102250.59
2019-04-20T21:26:03.577Z,102244.38
2019-04-20T21:28:36.100Z,102245.30
2019-04-20T21:31:14.578Z,102244.76
2019-04-20T21:34:01.886Z,102244.42
2019-04-20T21:36:31.774Z,102249.12
2019-04-20T21:39:01.740Z,102247.39
2019-04-20T21:41:31.388Z,102171.97
2019-04-20T21:44:01.373Z,102233.15
2019-04-20T21:46:39.853Z,102229.31
2019-04-20T21:49:21.860Z,102230.78
2019-04-20T21:54:12.108Z,102225.12
2019-04-20T21:56:49.846Z,102222.91
2019-04-20T21:59:20.403Z,102218.86
2019-04-20T22:01:55.212Z,102215.77
2019-04-20T22:04:19.522Z,102211.72
2019-04-20T22:06:48.169Z,102206.32
2019-04-20T22:09:18.267Z,102199.57
2019-04-20T22:11:51.806Z,102202.39
2019-04-20T22:14:24.855Z,102206.44
2019-04-20T22:16:56.448Z,102206.92
2019-04-20T22:19:34.214Z,102205.58
2019-04-20T22:22:05.546Z,102205.70
2019-04-20T22:24:42.535Z,102207.41
2019-04-20T22:27:11.045Z,102198.08
2019-04-20T22:29:32.358Z,102197.96
2019-04-20T22:32:07.402Z,102198.83
2019-04-20T22:34:35.136Z,102191.69
2019-04-20T22:37:09.706Z,102189.50
2019-04-20T22:39:45.682Z,102182.25
2019-04-20T22:42:14.314Z,102188.99
2019-04-20T22:44:47.949Z,102184.80
2019-04-20T22:47:25.481Z,102182.97
2019-04-20T22:50:12.531Z,102187.11
2019-04-20T22:52:36.242Z,102186.28
2019-04-20T22:55:18.169Z,102174.97
2019-04-20T22:57:41.887Z,102179.53
2019-04-20T23:00:03.473Z,102165.17
2019-04-20T23:02:28.623Z,102174.22
2019-04-20T23:04:58.953Z,102168.44
2019-04-20T23:07:30.723Z,102168.44
2019-04-20T23:10:03.051Z,102164.03
2019-04-20T23:12:32.196Z,102168.56
2019-04-20T23:15:02.829Z,102164.52
2019-04-20T23:17:38.703Z,102160.47
2019-04-20T23:20:13.230Z,102159.59
2019-04-20T23:22:40.871Z,102157.89
2019-04-20T23:25:07.138Z,102154.20
2019-04-20T23:27:38.716Z,102151.63
2019-04-20T23:30:12.623Z,102152.98
2019-04-20T23:32:39.964Z,102148.55
2019-04-20T23:35:16.017Z,102149.41
2019-04-20T23:37:42.288Z,102139.58
2019-04-20T23:40:14.853Z,102142.27
2019-04-20T23:42:49.546Z,102144.98
2019-04-20T23:45:52.771Z,102142.79
2019-04-20T23:48:44.768Z,102139.83
2019-04-20T23:51:36.894Z,102137.61
2019-04-20T23:53:56.477Z,102131.47
2019-04-20T23:56:18.499Z,102133.17
2019-04-20T23:58:52.945Z,102121.64
